Barstow, California
Current Conditions -  °F | °C
As of 10:50 AM on Friday 24 Oct 2014 (Local Time) from KDAG Reporting Station
Clear Clear  
Wind Chill: 77°   Ceiling: Unl
Heat Index: 77°   Visibility: 10mi
Dew Point: 32°   Wind: 5mph
Humidity: 19%   Direction: 50°NE
Pressure: 30.08"   Gusts: NA
Location:  34.89°N, 117.02°W
Report Text: KDAG 241750Z AUTO 05004KT 10SM CLR 25/00 A3008 RMK AO2 SLP167 T02500000 10250 20128 50005
Loading
Personal Weather Stations






























Interactive Weather Map New forecast layout! Learn more

10-Day Weather Forecast

Advertisements
Track Severe Weather on mobile